Concordia, Kansas
Current Conditions -  °F | °C
As of 3:55 AM on Sunday 23 Nov 2014 (Local Time) from KCNK Reporting Station
Overcast Overcast  
Wind Chill: 12°   Ceiling: 1300
Heat Index: 12°   Visibility: 10mi
Dew Point: 11°   Wind: 5mph
Humidity: 93%   Direction: 180°S
Pressure: 29.47"   Gusts: NA
Location:  39.57°N, 97.66°W
Report Text: KCNK 230955Z AUTO 18004KT 10SM OVC013 12/11 A2947 RMK AO2 SLP975 T01170106
Loading
Personal Weather Stations






























Interactive Weather Map New forecast layout! Learn more

10-Day Weather Forecast

Advertisements
Track Severe Weather on mobile